Time;durP1;ratioP1;P1;durP2;ratioP2;P2;SDS_P1;SDS_P2;PMS_P1;PMS_P2;Temp;Humidity;BMP_temperature;BMP_pressure;BME280_temperature;BME280_humidity;BME280_pressure;Samples;Min_cycle;Max_cycle;Signal;HPM_P1;HPM_P2
2021/09/27 07:31:53;;;;;;;14.00;8.13;;;21.20;81.30;;;;;;5101570;27;20307;-64
2021/09/27 07:34:20;;;;;;;13.85;7.60;;;21.60;79.70;;;;;;5096936;28;20029;-62
2021/09/27 07:36:46;;;;;;;13.70;7.05;;;21.70;78.70;;;;;;5097385;28;20477;-62
2021/09/27 07:39:12;;;;;;;11.15;6.78;;;21.80;78.30;;;;;;5095365;28;20036;-62
2021/09/27 07:41:38;;;;;;;12.52;6.85;;;21.90;77.80;;;;;;5085960;28;20024;-62
2021/09/27 07:44:05;;;;;;;17.42;7.53;;;22.00;77.60;;;;;;5082447;28;20735;-64
2021/09/27 07:46:31;;;;;;;12.07;6.85;;;22.10;77.20;;;;;;5092236;28;20474;-63
2021/09/27 07:48:56;;;;;;;10.85;6.78;;;22.20;77.00;;;;;;5080956;28;20115;-62
2021/09/27 07:51:24;;;;;;;11.32;6.43;;;22.20;76.70;;;;;;5095375;28;20023;-63
2021/09/27 07:53:49;;;;;;;12.60;6.63;;;22.20;76.60;;;;;;5101225;28;20020;-62
2021/09/27 07:56:15;;;;;;;10.02;6.47;;;22.00;76.80;;;;;;5099498;28;20069;-63
2021/09/27 07:58:41;;;;;;;9.05;6.05;;;22.10;77.00;;;;;;5090675;28;20510;-63
2021/09/27 08:01:07;;;;;;;10.75;6.05;;;22.20;76.40;;;;;;5100893;28;20036;-62
2021/09/27 08:03:32;;;;;;;11.30;5.88;;;22.20;76.30;;;;;;5085809;28;20027;-63
2021/09/27 08:05:58;;;;;;;11.57;6.03;;;22.20;76.40;;;;;;5086456;28;20063;-62
2021/09/27 08:08:23;;;;;;;9.25;6.00;;;22.20;76.30;;;;;;5093679;28;20294;-61
2021/09/27 08:10:49;;;;;;;8.88;6.40;;;22.20;76.40;;;;;;5096104;28;20032;-63
2021/09/27 08:13:15;;;;;;;10.55;6.57;;;22.20;76.40;;;;;;5100153;28;20028;-61
2021/09/27 08:15:45;;;;;;;8.85;6.38;;;22.30;76.20;;;;;;5101919;28;20024;-64
2021/09/27 08:18:12;;;;;;;9.27;5.47;;;22.40;75.70;;;;;;5105634;28;20053;-61
2021/09/27 08:20:44;;;;;;;8.60;5.38;;;22.40;75.40;;;;;;5096658;28;20302;-61
2021/09/27 08:23:11;;;;;;;9.30;5.75;;;22.40;75.10;;;;;;5094724;28;20036;-61
2021/09/27 08:25:37;;;;;;;8.15;5.63;;;22.50;75.10;;;;;;5101057;28;20032;-61
2021/09/27 08:28:05;;;;;;;8.88;5.80;;;22.50;74.90;;;;;;5087094;28;20415;-61
2021/09/27 08:30:36;;;;;;;7.65;5.47;;;22.60;74.80;;;;;;5112995;28;20035;-60
2021/09/27 08:33:03;;;;;;;7.83;5.30;;;22.60;74.20;;;;;;5102099;28;20055;-61
2021/09/27 08:35:30;;;;;;;7.60;5.97;;;22.60;73.90;;;;;;5100847;28;20262;-61
2021/09/27 08:37:57;;;;;;;7.82;5.55;;;22.70;73.90;;;;;;5101516;28;20035;-62
2021/09/27 08:40:42;;;;;;;8.10;5.30;;;22.50;74.50;;;;;;5080000;28;20037;-61
2021/09/27 08:43:35;;;;;;;8.13;5.60;;;22.50;74.40;;;;;;5074325;28;20028;-63
2021/09/27 08:46:20;;;;;;;8.18;5.63;;;22.30;75.40;;;;;;5070851;28;20086;-62
2021/09/27 08:48:51;;;;;;;7.85;5.45;;;22.30;75.40;;;;;;5084990;28;20497;-61
2021/09/27 08:51:16;;;;;;;7.97;5.38;;;22.20;75.90;;;;;;5098126;28;20036;-60
2021/09/27 08:53:48;;;;;;;11.70;5.38;;;22.20;75.90;;;;;;5083625;28;20024;-63
2021/09/27 08:56:25;;;;;;;9.25;5.60;;;22.30;75.50;;;;;;5068106;28;20056;-62
2021/09/27 08:59:06;;;;;;;10.68;6.15;;;22.40;75.30;;;;;;5071896;28;20090;-61
2021/09/27 09:01:42;;;;;;;;;;;22.30;75.60;;;;;;5070263;28;20029;-62
2021/09/27 09:04:25;;;;;;;13.20;6.15;;;22.20;75.90;;;;;;5085694;28;19912;-62
2021/09/27 09:07:00;;;;;;;53.22;10.95;;;22.10;76.30;;;;;;5088956;28;20123;-62
2021/09/27 09:09:37;;;;;;;191.10;23.52;;;22.00;76.70;;;;;;5098356;28;20088;-64
2021/09/27 09:12:25;;;;;;;318.15;37.28;;;21.90;76.90;;;;;;5099907;28;20431;-62
2021/09/27 09:15:14;;;;;;;461.15;53.55;;;22.00;76.90;;;;;;5103824;28;20595;-61
2021/09/27 09:18:03;;;;;;;599.95;74.75;;;22.20;75.90;;;;;;5094097;28;20825;-63
2021/09/27 09:20:50;;;;;;;685.75;89.07;;;22.40;75.40;;;;;;5069207;28;20044;-63
2021/09/27 09:23:26;;;;;;;736.42;100.32;;;22.50;74.90;;;;;;5092094;28;20490;-60
2021/09/27 09:25:52;;;;;;;781.50;102.93;;;22.60;74.30;;;;;;5090217;28;20043;-61
2021/09/27 09:28:18;;;;;;;786.78;106.80;;;22.60;74.00;;;;;;5095504;28;20059;-60
2021/09/27 09:31:15;;;;;;;879.60;115.50;;;22.50;74.40;;;;;;5076966;28;20055;-63
2021/09/27 09:33:51;;;;;;;1060.47;142.32;;;22.60;74.20;;;;;;5075314;28;20075;-62
2021/09/27 09:36:27;;;;;;;1129.97;145.50;;;22.60;74.10;;;;;;5077149;28;20047;-61
2021/09/27 09:38:53;;;;;;;1014.33;136.23;;;22.60;74.10;;;;;;5086366;28;20024;-60
2021/09/27 09:41:19;;;;;;;1093.05;149.95;;;22.80;73.60;;;;;;5086302;28;20036;-64
2021/09/27 09:43:50;;;;;;;1020.08;136.18;;;23.00;73.10;;;;;;5086190;28;20028;-63
2021/09/27 09:46:32;;;;;;;907.75;127.05;;;23.00;72.70;;;;;;5087232;28;20115;-62
2021/09/27 09:49:08;;;;;;;872.45;118.85;;;23.10;72.40;;;;;;5086844;28;20397;-61
2021/09/27 09:51:40;;;;;;;780.53;102.22;;;23.20;72.30;;;;;;5086671;28;20104;-62
2021/09/27 09:54:18;;;;;;;768.33;103.95;;;23.10;72.10;;;;;;5086397;28;20024;-61
2021/09/27 09:57:02;;;;;;;698.22;96.28;;;22.90;72.40;;;;;;5087094;28;20031;-62
2021/09/27 09:59:34;;;;;;;627.85;89.78;;;22.70;73.10;;;;;;5086909;28;20345;-61
2021/09/27 10:02:01;;;;;;;592.33;82.63;;;22.50;73.80;;;;;;5087075;28;20386;-61
2021/09/27 10:04:40;;;;;;;563.90;76.07;;;22.60;74.20;;;;;;5086945;28;20031;-61
2021/09/27 10:07:16;;;;;;;499.60;73.07;;;22.70;73.60;;;;;;5087176;28;20456;-61
2021/09/27 10:09:55;;;;;;;488.08;70.20;;;22.90;73.20;;;;;;5086367;28;20115;-61
2021/09/27 10:12:42;;;;;;;477.45;65.28;;;23.00;72.60;;;;;;5067639;28;20482;-61
2021/09/27 10:15:08;;;;;;;435.35;59.13;;;22.90;72.90;;;;;;5066387;28;20075;-63
2021/09/27 10:17:38;;;;;;;415.35;54.78;;;23.00;72.60;;;;;;5066531;28;20036;-61
2021/09/27 10:20:24;;;;;;;356.48;51.20;;;23.10;72.20;;;;;;5065012;28;20028;-61
2021/09/27 10:22:58;;;;;;;345.75;48.08;;;23.00;72.50;;;;;;5066251;28;20024;-62
2021/09/27 10:25:34;;;;;;;342.25;46.15;;;22.80;73.00;;;;;;5066578;28;20020;-61
2021/09/27 10:28:02;;;;;;;318.13;44.70;;;22.70;73.40;;;;;;5066273;28;20303;-60
2021/09/27 10:30:49;;;;;;;286.00;42.45;;;22.80;73.30;;;;;;5065942;28;20567;-63
2021/09/27 10:33:31;;;;;;;311.98;44.67;;;22.80;73.10;;;;;;5065599;28;20060;-61
2021/09/27 10:36:08;;;;;;;227.40;35.88;;;22.70;73.60;;;;;;5076482;28;20028;-61
2021/09/27 10:38:40;;;;;;;213.98;33.88;;;22.70;73.30;;;;;;5074676;28;20020;-63
2021/09/27 10:41:39;;;;;;;198.32;32.83;;;22.80;73.00;;;;;;5080994;28;20028;-62
2021/09/27 10:44:32;;;;;;;201.50;32.87;;;22.70;73.90;;;;;;5085713;28;20729;-64
2021/09/27 10:47:06;;;;;;;207.57;31.55;;;22.70;73.90;;;;;;5075202;28;20044;-61
2021/09/27 10:49:46;;;;;;;172.70;28.77;;;22.60;74.30;;;;;;5067810;28;20046;-61
2021/09/27 10:52:26;;;;;;;150.27;26.38;;;22.60;74.10;;;;;;5076582;28;20474;-62
2021/09/27 10:54:57;;;;;;;169.20;28.95;;;22.70;74.00;;;;;;5076574;28;20054;-59
2021/09/27 10:57:25;;;;;;;147.67;25.43;;;22.70;74.10;;;;;;5083483;28;20024;-61
2021/09/27 10:59:59;;;;;;;132.35;27.50;;;22.80;73.60;;;;;;5083546;28;20262;-61
2021/09/27 11:02:42;;;;;;;119.20;23.20;;;22.90;73.30;;;;;;5065398;28;20104;-62
2021/09/27 11:05:29;;;;;;;121.75;24.83;;;22.90;73.10;;;;;;5065619;28;20101;-61
2021/09/27 11:08:04;;;;;;;106.15;22.48;;;23.00;73.00;;;;;;5065072;28;20451;-62
2021/09/27 11:10:39;;;;;;;101.80;22.17;;;23.00;72.90;;;;;;5064987;28;20028;-61
2021/09/27 11:13:06;;;;;;;106.78;21.90;;;23.00;72.80;;;;;;5076468;28;20393;-61
2021/09/27 11:15:34;;;;;;;98.93;20.63;;;23.10;72.70;;;;;;5085620;28;20035;-62
2021/09/27 11:18:12;;;;;;;97.78;20.98;;;23.10;72.90;;;;;;5085550;28;20512;-63
2021/09/27 11:20:41;;;;;;;85.95;19.42;;;23.10;72.80;;;;;;5085425;28;20028;-60
2021/09/27 11:23:31;;;;;;;80.22;19.30;;;23.00;72.90;;;;;;5085267;28;20226;-60
2021/09/27 11:26:20;;;;;;;;;;;23.00;73.10;;;;;;5085823;28;20032;-61
2021/09/27 11:28:50;;;;;;;85.72;18.30;;;23.00;73.00;;;;;;5082171;28;19955;-61
2021/09/27 11:31:27;;;;;;;75.97;17.85;;;22.90;73.30;;;;;;5085300;28;20040;-60
2021/09/27 11:34:19;;;;;;;74.65;17.45;;;22.80;73.60;;;;;;5084680;28;20085;-61
2021/09/27 11:36:47;;;;;;;78.75;18.33;;;22.80;73.90;;;;;;5083314;28;20031;-63
2021/09/27 11:39:40;;;;;;;83.97;17.75;;;22.70;73.90;;;;;;5083955;28;20401;-60
2021/09/27 11:42:25;;;;;;;70.15;16.35;;;22.70;74.30;;;;;;5084245;28;20032;-61
2021/09/27 11:44:53;;;;;;;61.60;16.65;;;22.80;74.20;;;;;;5084790;28;20300;-62
2021/09/27 11:47:44;;;;;;;59.97;15.70;;;22.70;74.10;;;;;;5085674;28;20110;-60
2021/09/27 11:50:36;;;;;;;56.60;14.50;;;22.70;74.30;;;;;;5085153;28;20028;-61
2021/09/27 11:53:16;;;;;;;54.28;13.93;;;22.60;74.70;;;;;;5085151;28;20077;-61
2021/09/27 11:56:02;;;;;;;50.58;13.25;;;22.60;74.80;;;;;;5085682;28;20468;-60
2021/09/27 11:58:35;;;;;;;52.60;13.77;;;22.50;74.90;;;;;;5085278;28;20036;-62
2021/09/27 12:01:06;;;;;;;37.10;12.70;;;22.40;75.10;;;;;;5085015;28;20024;-61
2021/09/27 12:03:43;;;;;;;52.67;14.00;;;22.40;75.30;;;;;;5085855;28;20051;-63
2021/09/27 12:06:41;;;;;;;62.80;14.95;;;22.50;76.30;;;;;;5074677;28;20032;-65
2021/09/27 12:09:12;;;;;;;52.47;14.60;;;22.50;76.00;;;;;;5063619;28;20568;-64
2021/09/27 12:11:53;;;;;;;42.88;12.00;;;22.50;75.70;;;;;;5073491;28;20029;-67
2021/09/27 12:14:25;;;;;;;28.67;10.73;;;22.40;76.60;;;;;;5063418;28;20029;-64
2021/09/27 12:16:56;;;;;;;29.00;10.40;;;22.40;76.20;;;;;;5065465;28;20087;-64
2021/09/27 12:19:26;;;;;;;28.85;10.07;;;22.40;76.70;;;;;;5069605;28;20016;-67
2021/09/27 12:22:03;;;;;;;31.95;9.80;;;22.40;77.80;;;;;;5086759;28;20162;-65
2021/09/27 12:24:39;;;;;;;26.65;9.60;;;22.40;77.60;;;;;;5086576;28;20027;-68
2021/09/27 12:27:24;;;;;;;15.43;7.88;;;22.50;76.30;;;;;;5087247;28;20275;-66
2021/09/27 12:29:57;;;;;;;21.40;8.90;;;22.50;75.60;;;;;;5086341;28;20259;-64
2021/09/27 12:32:31;;;;;;;23.70;8.45;;;22.50;76.60;;;;;;5086956;28;20063;-67
2021/09/27 12:34:59;;;;;;;21.13;9.05;;;22.50;76.10;;;;;;5088297;28;20028;-65
2021/09/27 12:37:31;;;;;;;21.85;9.23;;;22.50;76.20;;;;;;5086911;28;20099;-66
2021/09/27 12:39:59;;;;;;;22.50;8.85;;;22.40;76.30;;;;;;5086560;28;20146;-66
2021/09/27 12:42:29;;;;;;;20.88;8.23;;;22.40;76.40;;;;;;5087773;28;20095;-67
2021/09/27 12:45:02;;;;;;;19.40;9.15;;;22.30;76.90;;;;;;5088579;28;20024;-67
2021/09/27 12:47:28;;;;;;;16.98;7.55;;;22.40;76.80;;;;;;5086649;28;20024;-67
2021/09/27 12:49:56;;;;;;;17.00;7.63;;;22.30;76.80;;;;;;5088165;28;20573;-69
2021/09/27 12:52:46;;;;;;;14.38;7.38;;;22.20;76.90;;;;;;5087146;28;20032;-66
2021/09/27 12:55:15;;;;;;;13.50;7.32;;;22.20;77.20;;;;;;5088021;28;20035;-65
2021/09/27 12:57:44;;;;;;;14.95;7.35;;;22.10;77.40;;;;;;5087838;28;20051;-68
2021/09/27 13:00:18;;;;;;;13.77;7.10;;;22.00;77.60;;;;;;5088152;28;20051;-66
2021/09/27 13:02:46;;;;;;;15.60;7.28;;;22.10;77.40;;;;;;5086182;28;20111;-65
2021/09/27 13:05:27;;;;;;;13.32;6.88;;;22.00;77.50;;;;;;5087811;28;20030;-70
2021/09/27 13:07:58;;;;;;;17.00;7.53;;;22.00;77.30;;;;;;5086957;28;20405;-66
2021/09/27 13:10:46;;;;;;;16.77;8.18;;;22.00;77.60;;;;;;5083125;28;20024;-68
2021/09/27 13:13:17;;;;;;;13.43;7.30;;;22.00;78.00;;;;;;5067264;28;20032;-67
2021/09/27 13:15:49;;;;;;;;;;;22.00;78.20;;;;;;5083587;28;20016;-66
2021/09/27 13:18:33;;;;;;;14.20;6.70;;;21.90;77.80;;;;;;5086533;28;19912;-67
2021/09/27 13:21:17;;;;;;;11.40;5.88;;;22.00;77.70;;;;;;5085589;28;20062;-68
2021/09/27 13:23:46;;;;;;;14.43;5.97;;;22.00;77.10;;;;;;5087022;28;20183;-67
2021/09/27 13:26:29;;;;;;;15.20;6.65;;;22.00;77.00;;;;;;5087216;28;20089;-67
2021/09/27 13:29:21;;;;;;;15.73;6.57;;;22.00;77.00;;;;;;5087095;28;20032;-67
2021/09/27 13:31:58;;;;;;;12.23;4.97;;;22.00;77.30;;;;;;5085897;28;20169;-66
2021/09/27 13:34:44;;;;;;;9.00;4.57;;;22.00;75.40;;;;;;5087589;28;20028;-67
2021/09/27 13:37:23;;;;;;;13.52;5.50;;;22.00;76.40;;;;;;5087000;28;20209;-68
2021/09/27 13:39:49;;;;;;;13.50;6.25;;;22.00;77.00;;;;;;5087060;28;20027;-67
2021/09/27 13:42:37;;;;;;;13.05;4.90;;;22.00;77.70;;;;;;5085760;28;20523;-67
2021/09/27 13:45:03;;;;;;;13.73;5.18;;;21.90;76.90;;;;;;5086862;28;20024;-66
2021/09/27 13:47:30;;;;;;;18.58;6.35;;;21.90;77.80;;;;;;5086655;28;20111;-67
2021/09/27 13:49:56;;;;;;;13.80;5.47;;;21.90;78.50;;;;;;5086721;28;20031;-67
2021/09/27 13:52:28;;;;;;;12.63;4.88;;;21.90;79.00;;;;;;5086479;28;20028;-67
2021/09/27 13:54:54;;;;;;;10.02;4.72;;;21.80;78.80;;;;;;5087013;28;20074;-67
2021/09/27 13:57:19;;;;;;;13.90;5.10;;;21.80;78.90;;;;;;5086956;28;20500;-66
2021/09/27 13:59:45;;;;;;;11.23;4.90;;;21.80;78.80;;;;;;5086766;28;20028;-67
2021/09/27 14:02:12;;;;;;;10.88;4.70;;;21.80;78.70;;;;;;5086195;28;20039;-67
2021/09/27 14:04:37;;;;;;;10.18;4.28;;;21.80;78.50;;;;;;5086397;28;20107;-67
2021/09/27 14:07:03;;;;;;;9.00;3.75;;;21.70;78.20;;;;;;5086425;28;20131;-68
2021/09/27 14:09:29;;;;;;;8.77;4.00;;;21.70;78.10;;;;;;5086394;28;20024;-67
2021/09/27 14:11:55;;;;;;;9.38;3.53;;;21.60;78.00;;;;;;5069688;28;20033;-67
2021/09/27 14:14:20;;;;;;;7.35;3.38;;;21.60;78.20;;;;;;5064534;28;20033;-67
2021/09/27 14:16:46;;;;;;;8.80;3.40;;;21.60;78.00;;;;;;5064892;28;20020;-69
2021/09/27 14:19:11;;;;;;;6.53;3.53;;;21.60;78.00;;;;;;5064788;28;20025;-68
2021/09/27 14:21:37;;;;;;;6.75;3.15;;;21.50;78.00;;;;;;5064037;28;20033;-67
2021/09/27 14:24:05;;;;;;;6.18;3.10;;;21.60;78.10;;;;;;5065624;28;20463;-67
2021/09/27 14:26:33;;;;;;;6.88;3.47;;;21.50;78.70;;;;;;5066216;28;20024;-67
2021/09/27 14:28:58;;;;;;;8.35;3.58;;;21.50;78.30;;;;;;5081453;28;20036;-67
2021/09/27 14:31:24;;;;;;;6.00;3.25;;;21.50;78.50;;;;;;5064794;28;20528;-69
2021/09/27 14:33:50;;;;;;;8.23;3.35;;;21.50;78.40;;;;;;5065690;28;20055;-66
2021/09/27 14:36:17;;;;;;;6.82;3.35;;;21.50;78.30;;;;;;5065879;28;20545;-69
2021/09/27 14:38:43;;;;;;;6.07;3.00;;;21.40;78.40;;;;;;5066102;28;20499;-67
2021/09/27 14:41:09;;;;;;;6.20;3.47;;;21.40;78.40;;;;;;5064959;28;20029;-66
2021/09/27 14:43:35;;;;;;;5.32;2.88;;;21.40;78.60;;;;;;5065949;28;20039;-67
2021/09/27 14:46:01;;;;;;;10.10;3.38;;;21.40;78.50;;;;;;5066026;28;20116;-68
2021/09/27 14:48:28;;;;;;;10.45;3.42;;;21.50;79.20;;;;;;5065290;28;20037;-67
2021/09/27 14:50:54;;;;;;;8.23;3.22;;;21.40;78.40;;;;;;5063995;28;20929;-65
2021/09/27 14:53:23;;;;;;;6.55;3.10;;;21.40;78.50;;;;;;5065897;28;20371;-66
2021/09/27 14:55:51;;;;;;;6.38;2.90;;;21.40;78.40;;;;;;5065645;28;20070;-67
2021/09/27 14:58:20;;;;;;;5.88;2.83;;;21.40;78.20;;;;;;5065948;28;20715;-66
2021/09/27 15:00:47;;;;;;;6.72;3.00;;;21.30;78.40;;;;;;5065432;28;20036;-67
2021/09/27 15:03:13;;;;;;;6.47;2.78;;;21.30;78.30;;;;;;5065411;28;20024;-68
2021/09/27 15:08:14;;;;;;;7.70;3.45;;;21.30;78.80;;;;;;5304792;23;19932;-68
2021/09/27 15:10:40;;;;;;;5.55;2.78;;;21.40;78.60;;;;;;5026701;28;20029;-68
2021/09/27 15:13:07;;;;;;;7.93;3.08;;;21.40;78.80;;;;;;5013775;28;20030;-64
2021/09/27 15:15:33;;;;;;;7.00;2.97;;;21.30;78.40;;;;;;5030373;28;20063;-65
2021/09/27 15:17:58;;;;;;;7.07;2.60;;;21.40;78.30;;;;;;5030754;28;20033;-64
2021/09/27 15:20:26;;;;;;;9.00;2.63;;;21.30;78.40;;;;;;5033220;28;20026;-65
2021/09/27 15:23:00;;;;;;;19.35;3.58;;;21.30;78.50;;;;;;5026300;28;20092;-66
2021/09/27 15:25:50;;;;;;;13.52;2.97;;;21.30;78.70;;;;;;5011354;28;20025;-69
2021/09/27 15:28:16;;;;;;;10.60;2.97;;;21.30;78.00;;;;;;5017463;28;20029;-69
2021/09/27 15:30:42;;;;;;;8.23;3.10;;;21.30;77.90;;;;;;5012074;28;20033;-66
2021/09/27 15:33:08;;;;;;;14.57;3.28;;;21.40;77.80;;;;;;5030279;28;20020;-67
2021/09/27 15:35:38;;;;;;;9.05;2.50;;;21.30;77.50;;;;;;5013637;28;20017;-68
2021/09/27 15:38:09;;;;;;;11.52;3.10;;;21.30;77.50;;;;;;5012390;28;20045;-66
2021/09/27 15:40:34;;;;;;;10.77;2.63;;;21.30;77.70;;;;;;5013564;28;20025;-65
2021/09/27 15:43:00;;;;;;;20.38;3.53;;;21.30;77.70;;;;;;5031443;28;20452;-68
2021/09/27 15:45:26;;;;;;;25.38;3.90;;;21.20;77.50;;;;;;5013726;28;20044;-63
2021/09/27 15:47:51;;;;;;;21.08;3.45;;;21.20;77.70;;;;;;5013389;28;20445;-66
2021/09/27 15:50:17;;;;;;;19.15;3.50;;;21.20;78.30;;;;;;5031380;28;20064;-65
2021/09/27 15:52:42;;;;;;;12.35;2.92;;;21.20;77.60;;;;;;5033768;28;20478;-64
2021/09/27 15:55:08;;;;;;;11.75;2.60;;;21.20;78.00;;;;;;5035499;28;20028;-65
2021/09/27 15:57:34;;;;;;;20.42;3.20;;;21.20;77.80;;;;;;5034432;28;20064;-66
2021/09/27 16:00:00;;;;;;;16.30;3.22;;;21.10;77.90;;;;;;5017648;28;20053;-66
2021/09/27 16:02:25;;;;;;;18.48;3.15;;;21.10;77.90;;;;;;5017607;28;20021;-66
2021/09/27 16:04:51;;;;;;;21.35;4.07;;;21.10;77.50;;;;;;5017616;28;20497;-65
2021/09/27 16:07:16;;;;;;;18.63;3.83;;;21.10;77.40;;;;;;5034698;28;20029;-65
2021/09/27 16:09:42;;;;;;;57.08;7.88;;;21.10;77.60;;;;;;5035148;28;20038;-66
2021/09/27 16:12:08;;;;;;;51.25;6.35;;;21.10;77.80;;;;;;5033945;28;20028;-65
2021/09/27 16:14:34;;;;;;;24.50;4.53;;;21.10;77.60;;;;;;5033739;28;20025;-66
2021/09/27 16:17:00;;;;;;;38.33;5.75;;;21.10;77.50;;;;;;5033735;28;20017;-67
2021/09/27 16:19:27;;;;;;;29.35;4.70;;;21.10;77.80;;;;;;5035037;28;20021;-66
2021/09/27 16:21:52;;;;;;;21.33;4.47;;;21.10;77.50;;;;;;5034883;28;20018;-66
2021/09/27 16:24:18;;;;;;;61.88;6.70;;;21.10;77.60;;;;;;5034974;28;20422;-65
2021/09/27 16:26:46;;;;;;;33.47;4.50;;;21.10;77.80;;;;;;5034343;28;20474;-66
2021/09/27 16:29:13;;;;;;;18.67;3.45;;;21.10;77.70;;;;;;5032915;28;20113;-65
2021/09/27 16:32:04;;;;;;;15.18;3.85;;;21.00;78.10;;;;;;5032149;28;20052;-67
2021/09/27 16:34:33;;;;;;;16.05;3.22;;;21.10;79.00;;;;;;5035143;28;20385;-66
2021/09/27 16:36:59;;;;;;;14.88;3.30;;;21.10;79.50;;;;;;5034524;28;20482;-65
2021/09/27 16:39:27;;;;;;;9.18;2.50;;;21.00;79.80;;;;;;5033573;28;20082;-65
2021/09/27 16:41:53;;;;;;;9.20;3.10;;;20.90;79.90;;;;;;5034697;28;20048;-64
2021/09/27 16:44:25;;;;;;;14.60;3.28;;;21.00;80.20;;;;;;5050038;28;20398;-64
2021/09/27 16:46:52;;;;;;;8.27;2.95;;;20.90;80.20;;;;;;5033020;28;20068;-65
2021/09/27 16:49:18;;;;;;;6.32;2.40;;;21.00;80.10;;;;;;5034601;28;20108;-65
2021/09/27 16:51:44;;;;;;;6.25;2.88;;;21.00;80.30;;;;;;5033226;28;20425;-65
2021/09/27 16:54:11;;;;;;;11.57;2.60;;;20.90;80.20;;;;;;5033354;28;20017;-66
2021/09/27 16:56:38;;;;;;;7.68;2.40;;;20.90;80.40;;;;;;5032751;28;20021;-65
2021/09/27 16:59:05;;;;;;;11.25;2.90;;;20.90;80.30;;;;;;5032689;28;20029;-66
2021/09/27 17:01:31;;;;;;;22.35;4.75;;;20.90;80.50;;;;;;5033087;28;20149;-67
2021/09/27 17:03:57;;;;;;;20.15;4.68;;;20.90;80.70;;;;;;5033806;28;20107;-67
2021/09/27 17:06:22;;;;;;;19.52;4.05;;;20.90;80.70;;;;;;5032657;28;20474;-68
2021/09/27 17:08:48;;;;;;;17.95;4.35;;;20.90;80.70;;;;;;5032965;28;20021;-66
2021/09/27 17:11:14;;;;;;;18.33;4.45;;;20.90;80.90;;;;;;5032724;28;20501;-67
2021/09/27 17:13:44;;;;;;;16.67;4.68;;;20.90;81.20;;;;;;5034219;28;20370;-65
2021/09/27 17:18:56;;;;;;;7.63;2.83;;;20.80;81.10;;;;;;5034176;28;20136;-65
2021/09/27 17:21:22;;;;;;;7.43;3.10;;;20.80;81.10;;;;;;5016035;28;20068;-64
2021/09/27 17:23:58;;;;;;;10.68;2.85;;;20.80;81.40;;;;;;5033931;28;20417;-66
2021/09/27 17:26:27;;;;;;;6.80;3.03;;;20.80;81.60;;;;;;5022591;28;20021;-66
2021/09/27 17:28:54;;;;;;;7.15;2.72;;;20.80;81.20;;;;;;5033779;28;20021;-64
2021/09/27 17:31:24;;;;;;;7.97;3.08;;;20.90;81.40;;;;;;5015985;28;20053;-66
2021/09/27 17:33:53;;;;;;;8.88;3.35;;;20.90;82.10;;;;;;5015675;28;20045;-67
2021/09/27 17:36:19;;;;;;;5.43;3.00;;;20.90;81.80;;;;;;5031130;28;20096;-65
2021/09/27 17:38:45;;;;;;;9.70;3.10;;;20.90;81.80;;;;;;5031606;28;20018;-66
2021/09/27 17:41:13;;;;;;;7.13;2.97;;;20.90;81.60;;;;;;5013978;28;20573;-66
2021/09/27 17:43:39;;;;;;;7.43;3.00;;;20.90;81.50;;;;;;5014787;28;20037;-66
2021/09/27 17:46:05;;;;;;;10.27;3.40;;;20.90;81.80;;;;;;5016414;28;20124;-70
2021/09/27 17:48:31;;;;;;;7.82;3.17;;;20.90;83.40;;;;;;5033105;28;20017;-65
2021/09/27 17:50:57;;;;;;;13.95;3.30;;;21.00;81.90;;;;;;5031934;28;20117;-67
2021/09/27 17:53:22;;;;;;;15.63;3.97;;;21.00;81.90;;;;;;5021712;28;20104;-65
2021/09/27 17:55:48;;;;;;;13.80;3.33;;;21.00;82.60;;;;;;5015398;28;20014;-63
2021/09/27 17:58:14;;;;;;;13.65;3.95;;;21.00;81.90;;;;;;5015066;28;20018;-68
2021/09/27 18:00:42;;;;;;;12.52;3.67;;;21.10;82.80;;;;;;5014651;28;20063;-66
2021/09/27 18:03:08;;;;;;;11.07;4.00;;;21.10;81.70;;;;;;5013677;28;20116;-68
2021/09/27 18:05:34;;;;;;;19.58;4.13;;;21.10;81.90;;;;;;5032682;28;20112;-68
2021/09/27 18:07:59;;;;;;;16.33;3.80;;;21.10;83.40;;;;;;5014867;28;20091;-69
2021/09/27 18:10:26;;;;;;;11.23;3.60;;;21.10;82.60;;;;;;5013892;28;20112;-68
2021/09/27 18:12:52;;;;;;;10.80;3.78;;;21.10;83.40;;;;;;5032983;28;20478;-68
2021/09/27 18:15:23;;;;;;;12.30;3.17;;;21.10;82.40;;;;;;5014458;28;20072;-67
2021/09/27 18:17:49;;;;;;;12.57;3.70;;;21.10;82.20;;;;;;5014732;28;20049;-68
2021/09/27 18:20:19;;;;;;;17.45;3.60;;;21.10;82.30;;;;;;5015152;28;20029;-68
2021/09/27 18:22:45;;;;;;;12.30;3.55;;;21.10;82.10;;;;;;5032852;28;20021;-69
2021/09/27 18:25:13;;;;;;;16.40;3.67;;;21.10;82.50;;;;;;5028415;28;20049;-69
2021/09/27 18:27:39;;;;;;;16.90;4.03;;;21.10;83.40;;;;;;5034558;28;20037;-68
2021/09/27 18:30:08;;;;;;;14.75;2.95;;;21.10;82.30;;;;;;5014635;28;20057;-68
2021/09/27 18:32:34;;;;;;;13.75;3.42;;;21.10;83.00;;;;;;5032368;28;20022;-68
2021/09/27 18:35:02;;;;;;;13.07;4.47;;;21.10;82.60;;;;;;5032590;28;20033;-68
2021/09/27 18:37:27;;;;;;;13.52;3.55;;;21.10;83.90;;;;;;5030817;28;20025;-69
2021/09/27 18:39:52;;;;;;;10.13;3.97;;;21.10;82.70;;;;;;5030976;28;20390;-68
2021/09/27 18:42:20;;;;;;;14.38;5.38;;;21.10;82.50;;;;;;5030980;28;20021;-67
2021/09/27 18:44:46;;;;;;;15.25;5.38;;;21.10;83.10;;;;;;5047600;28;20018;-69
2021/09/27 18:47:11;;;;;;;13.68;6.47;;;21.10;83.00;;;;;;5031974;28;20117;-68
2021/09/27 18:49:37;;;;;;;16.08;6.90;;;21.10;83.20;;;;;;5032261;28;20071;-68
2021/09/27 18:52:03;;;;;;;15.50;6.68;;;21.10;83.70;;;;;;5029851;28;20442;-68
2021/09/27 18:54:28;;;;;;;13.93;7.05;;;21.00;83.50;;;;;;5030904;28;20044;-68
2021/09/27 18:56:54;;;;;;;17.98;7.28;;;21.10;84.00;;;;;;5030646;28;20029;-68
2021/09/27 18:59:19;;;;;;;15.50;6.57;;;21.00;83.70;;;;;;5014128;28;20376;-68
2021/09/27 19:01:45;;;;;;;14.73;7.07;;;21.10;84.00;;;;;;5014404;28;20510;-67
2021/09/27 19:04:10;;;;;;;12.88;6.40;;;21.00;83.80;;;;;;5032290;28;20029;-68
2021/09/27 19:06:36;;;;;;;16.40;7.18;;;21.00;83.90;;;;;;5027222;28;20032;-66
2021/09/27 19:09:02;;;;;;;13.15;6.70;;;21.00;84.00;;;;;;5016006;28;20147;-67
2021/09/27 19:11:28;;;;;;;13.75;6.53;;;21.00;83.70;;;;;;5031990;28;20033;-65
2021/09/27 19:13:53;;;;;;;14.10;6.18;;;21.00;83.60;;;;;;5031686;28;20036;-68
2021/09/27 19:16:19;;;;;;;12.98;6.80;;;21.00;84.10;;;;;;5030296;28;20023;-68
2021/09/27 19:18:45;;;;;;;13.60;6.28;;;20.90;84.00;;;;;;5027371;28;20021;-67
2021/09/27 19:21:22;;;;;;;13.80;5.95;;;20.90;84.10;;;;;;5015879;28;20110;-67
2021/09/27 19:23:51;;;;;;;16.08;6.32;;;20.90;84.20;;;;;;5013697;28;20041;-68
2021/09/27 19:26:16;;;;;;;12.57;5.97;;;20.90;84.30;;;;;;5018044;28;20035;-65
2021/09/27 19:28:43;;;;;;;12.20;5.45;;;20.80;84.30;;;;;;5013107;28;20116;-69
2021/09/27 19:31:11;;;;;;;12.80;5.05;;;20.80;84.30;;;;;;5030009;28;20079;-67
2021/09/27 19:33:37;;;;;;;10.68;5.18;;;20.80;84.50;;;;;;5031702;28;20109;-66
2021/09/27 19:36:04;;;;;;;12.43;5.00;;;20.80;84.50;;;;;;5013851;28;20025;-67
2021/09/27 19:38:29;;;;;;;11.80;4.90;;;20.80;84.70;;;;;;5030841;28;20021;-65
2021/09/27 19:40:55;;;;;;;10.52;4.60;;;20.80;84.80;;;;;;5031357;28;20120;-67
2021/09/27 19:43:21;;;;;;;10.95;4.90;;;20.80;84.80;;;;;;5013732;28;20021;-67
2021/09/27 19:45:48;;;;;;;10.13;4.38;;;20.80;84.90;;;;;;5030179;28;20120;-67
2021/09/27 19:48:17;;;;;;;11.38;4.63;;;20.70;84.90;;;;;;5029831;28;20021;-66
2021/09/27 19:50:44;;;;;;;12.60;4.55;;;20.70;85.00;;;;;;5031486;28;20486;-67
2021/09/27 19:53:10;;;;;;;10.77;4.13;;;20.70;85.00;;;;;;5046802;28;20486;-66
2021/09/27 19:55:36;;;;;;;9.05;4.07;;;20.70;85.10;;;;;;5031250;28;20033;-66
2021/09/27 19:58:02;;;;;;;12.30;3.83;;;20.70;85.20;;;;;;5030915;28;20046;-66
2021/09/27 20:00:29;;;;;;;11.27;4.03;;;20.70;85.20;;;;;;5031353;28;20030;-66
2021/09/27 20:02:56;;;;;;;8.95;3.85;;;20.60;85.00;;;;;;5013408;28;20106;-67
2021/09/27 20:05:22;;;;;;;11.32;3.58;;;20.60;85.10;;;;;;5030298;28;20026;-65
2021/09/27 20:07:48;;;;;;;11.60;3.47;;;20.70;85.20;;;;;;5030960;28;20026;-66
2021/09/27 20:10:16;;;;;;;10.05;3.30;;;20.60;85.10;;;;;;5030994;28;20414;-67
2021/09/27 20:12:44;;;;;;;9.20;3.60;;;20.70;85.20;;;;;;5013665;28;20430;-67
2021/09/27 20:15:14;;;;;;;7.10;2.88;;;20.60;85.10;;;;;;5031154;28;20021;-67
2021/09/27 20:17:41;;;;;;;112.25;57.80;;;20.70;85.40;;;;;;5030728;28;20032;-67
2021/09/27 20:20:08;;;;;;;53.38;22.08;;;20.60;84.80;;;;;;5031238;28;20025;-69
2021/09/27 20:22:34;;;;;;;39.40;6.85;;;20.60;85.00;;;;;;5027923;28;20322;-68
2021/09/27 20:25:00;;;;;;;26.65;8.32;;;20.70;85.20;;;;;;5024292;28;20022;-66
2021/09/27 20:27:26;;;;;;;21.10;5.65;;;20.70;85.30;;;;;;5024359;28;20268;-68
2021/09/27 20:29:52;;;;;;;16.88;5.43;;;20.60;85.30;;;;;;5027792;28;20021;-66